Time;durP1;ratioP1;P1;durP2;ratioP2;P2;SDS_P1;SDS_P2;PMS_P1;PMS_P2;Temp;Humidity;BMP_temperature;BMP_pressure;BME280_temperature;BME280_humidity;BME280_pressure;Samples;Min_cycle;Max_cycle;Signal;HPM_P1;HPM_P2
2021/10/05 00:02:13;;;;;;;4.68;3.15;;;23.30;53.70;;;;;;4959127;28;20036;-53
2021/10/05 00:04:39;;;;;;;4.28;3.00;;;23.30;53.70;;;;;;4978132;28;20093;-55
2021/10/05 00:07:04;;;;;;;5.47;3.40;;;23.30;53.70;;;;;;4975442;28;20416;-52
2021/10/05 00:09:31;;;;;;;4.47;2.92;;;23.30;53.70;;;;;;4969584;28;20035;-55
2021/10/05 00:11:56;;;;;;;4.10;2.90;;;23.20;53.70;;;;;;4967308;28;20045;-53
2021/10/05 00:14:22;;;;;;;4.45;3.20;;;23.20;53.70;;;;;;4982394;28;20034;-51
2021/10/05 00:16:47;;;;;;;4.95;3.03;;;23.20;53.70;;;;;;4975740;28;20042;-56
2021/10/05 00:19:14;;;;;;;4.47;3.17;;;23.20;53.70;;;;;;4964081;28;20648;-55
2021/10/05 00:21:40;;;;;;;5.10;2.95;;;23.20;53.70;;;;;;4964864;28;20202;-54
2021/10/05 00:24:05;;;;;;;5.53;3.22;;;23.20;53.70;;;;;;4974557;28;20094;-52
2021/10/05 00:26:31;;;;;;;4.47;3.05;;;23.20;53.70;;;;;;4975323;28;20029;-56
2021/10/05 00:28:56;;;;;;;5.10;3.28;;;23.20;53.70;;;;;;4982314;28;20517;-60
2021/10/05 00:31:22;;;;;;;6.57;3.10;;;23.20;53.80;;;;;;4977399;28;20035;-53
2021/10/05 00:33:48;;;;;;;4.93;3.40;;;23.20;53.70;;;;;;4970176;28;20046;-48
2021/10/05 00:36:13;;;;;;;4.50;2.95;;;23.20;53.70;;;;;;4975540;28;20030;-55
2021/10/05 00:38:39;;;;;;;4.35;3.00;;;23.10;53.70;;;;;;4970254;28;20093;-54
2021/10/05 00:41:04;;;;;;;4.35;3.20;;;23.10;53.70;;;;;;4972358;28;20046;-48
2021/10/05 00:43:30;;;;;;;4.68;3.22;;;23.10;53.70;;;;;;4973689;28;20029;-51
2021/10/05 00:45:56;;;;;;;4.50;3.00;;;23.10;54.20;;;;;;4987478;28;20026;-59
2021/10/05 00:48:21;;;;;;;5.38;3.30;;;23.10;53.70;;;;;;4972316;28;20033;-55
2021/10/05 00:50:47;;;;;;;5.00;2.85;;;23.10;53.70;;;;;;4983098;28;20080;-49
2021/10/05 00:53:14;;;;;;;5.53;3.08;;;23.10;53.70;;;;;;4969092;28;20722;-50
2021/10/05 00:55:40;;;;;;;5.63;3.30;;;23.10;53.70;;;;;;4972005;28;20537;-54
2021/10/05 00:58:06;;;;;;;4.95;3.50;;;23.10;54.20;;;;;;4973178;28;20030;-52
2021/10/05 01:00:31;;;;;;;4.20;3.00;;;23.10;53.70;;;;;;4971126;28;20060;-52
2021/10/05 01:02:58;;;;;;;4.50;2.85;;;23.10;53.70;;;;;;4963445;28;20049;-57
2021/10/05 01:05:24;;;;;;;4.25;2.83;;;23.10;53.70;;;;;;4954680;28;20749;-54
2021/10/05 01:07:50;;;;;;;5.10;3.15;;;23.10;53.70;;;;;;4973459;28;20063;-51
2021/10/05 01:10:19;;;;;;;3.90;2.75;;;23.10;53.70;;;;;;4969094;28;20386;-54
2021/10/05 01:12:49;;;;;;;4.32;2.85;;;23.10;53.70;;;;;;4989126;28;20149;-50
2021/10/05 01:15:16;;;;;;;4.75;3.05;;;23.10;53.80;;;;;;4979134;28;20110;-52
2021/10/05 01:17:42;;;;;;;4.40;3.05;;;23.10;53.70;;;;;;4972394;28;20098;-59
2021/10/05 01:20:09;;;;;;;4.40;2.88;;;23.00;53.70;;;;;;4978886;28;20565;-59
2021/10/05 01:22:34;;;;;;;3.58;2.65;;;23.00;53.70;;;;;;4984482;28;20064;-55
2021/10/05 01:25:05;;;;;;;4.15;2.92;;;23.10;53.70;;;;;;4983347;28;20058;-54
2021/10/05 01:27:31;;;;;;;4.43;2.85;;;23.10;53.70;;;;;;4976731;28;20433;-53
2021/10/05 01:29:57;;;;;;;4.00;2.88;;;23.00;53.70;;;;;;4970071;28;20034;-48
2021/10/05 01:32:22;;;;;;;3.72;2.78;;;23.00;53.70;;;;;;4970661;28;20039;-54
2021/10/05 01:34:48;;;;;;;3.90;2.58;;;23.00;53.70;;;;;;4983212;28;20101;-50
2021/10/05 01:37:14;;;;;;;3.92;2.58;;;23.00;53.70;;;;;;4977200;28;20023;-56
2021/10/05 01:39:39;;;;;;;4.35;2.83;;;23.00;53.70;;;;;;4971701;28;20375;-53
2021/10/05 01:42:11;;;;;;;4.53;2.70;;;23.00;53.70;;;;;;4977104;28;20035;-57
2021/10/05 01:44:38;;;;;;;4.57;2.80;;;23.00;53.70;;;;;;4983056;28;20538;-59
2021/10/05 01:47:05;;;;;;;4.03;2.80;;;23.00;53.80;;;;;;4975614;28;20034;-48
2021/10/05 01:49:32;;;;;;;4.88;3.05;;;23.00;53.70;;;;;;4979197;28;20860;-53
2021/10/05 01:51:57;;;;;;;3.60;2.40;;;23.00;53.70;;;;;;4974192;28;20038;-54
2021/10/05 01:54:23;;;;;;;4.10;2.80;;;23.00;53.70;;;;;;4978587;28;20037;-59
2021/10/05 01:56:49;;;;;;;4.40;2.90;;;23.00;53.80;;;;;;4969929;28;20030;-52
2021/10/05 01:59:16;;;;;;;4.10;2.65;;;23.00;54.30;;;;;;4969824;28;20039;-54
2021/10/05 02:01:41;;;;;;;4.22;2.70;;;23.00;53.80;;;;;;4970591;28;20063;-55
2021/10/05 02:04:08;;;;;;;3.75;2.58;;;22.90;53.70;;;;;;4972321;28;20065;-58
2021/10/05 02:06:35;;;;;;;4.03;2.70;;;23.00;53.80;;;;;;4976057;28;20026;-59
2021/10/05 02:09:01;;;;;;;3.28;2.38;;;22.90;53.70;;;;;;4978753;28;20486;-59
2021/10/05 02:11:27;;;;;;;5.00;2.85;;;23.00;53.80;;;;;;4979868;28;20031;-53
2021/10/05 02:13:53;;;;;;;4.32;2.67;;;23.00;54.30;;;;;;4974006;28;20038;-52
2021/10/05 02:16:18;;;;;;;3.70;2.70;;;22.90;53.80;;;;;;4974953;28;20039;-53
2021/10/05 02:18:46;;;;;;;4.18;3.05;;;22.90;53.80;;;;;;4975747;28;20043;-55
2021/10/05 02:21:16;;;;;;;3.90;2.50;;;22.90;53.80;;;;;;4974235;28;20035;-53
2021/10/05 02:26:29;;;;;;;3.63;2.50;;;22.90;53.80;;;;;;4979915;28;20033;-53
2021/10/05 02:28:54;;;;;;;3.63;2.65;;;22.80;53.70;;;;;;4979798;28;20027;-52
2021/10/05 02:31:20;;;;;;;3.50;2.50;;;22.90;53.80;;;;;;4967602;28;20038;-49
2021/10/05 02:33:46;;;;;;;4.57;2.72;;;22.90;53.80;;;;;;4975435;28;20029;-52
2021/10/05 02:36:12;;;;;;;3.30;2.47;;;22.90;53.80;;;;;;4978057;28;20362;-47
2021/10/05 02:38:37;;;;;;;3.85;2.53;;;22.80;53.70;;;;;;4979570;28;20034;-49
2021/10/05 02:41:03;;;;;;;3.70;2.30;;;22.90;53.80;;;;;;4977145;28;20061;-49
2021/10/05 02:43:29;;;;;;;3.65;2.55;;;22.90;53.80;;;;;;4985747;28;20046;-56
2021/10/05 02:45:55;;;;;;;4.00;2.30;;;22.90;54.30;;;;;;4977247;28;20096;-53
2021/10/05 02:48:20;;;;;;;4.03;2.47;;;22.80;53.70;;;;;;4983150;28;20031;-53
2021/10/05 02:50:46;;;;;;;4.43;2.42;;;22.90;53.80;;;;;;4973493;28;20030;-55
2021/10/05 02:53:11;;;;;;;3.33;2.20;;;22.80;53.80;;;;;;4968275;28;20093;-54
2021/10/05 02:55:37;;;;;;;3.92;2.45;;;22.80;53.80;;;;;;4970364;28;20105;-59
2021/10/05 02:58:03;;;;;;;3.47;2.30;;;22.80;53.70;;;;;;4981295;28;20026;-59
2021/10/05 03:00:28;;;;;;;3.95;2.47;;;22.80;54.30;;;;;;4968037;28;20379;-55
2021/10/05 03:02:54;;;;;;;4.65;2.40;;;22.80;53.80;;;;;;4967125;28;20081;-55
2021/10/05 03:05:20;;;;;;;3.20;2.00;;;22.80;54.30;;;;;;4981666;28;20038;-50
2021/10/05 03:07:46;;;;;;;3.28;2.03;;;22.80;53.70;;;;;;4977771;28;20042;-56
2021/10/05 03:10:12;;;;;;;3.15;2.35;;;22.80;53.70;;;;;;4980824;28;20101;-54
2021/10/05 03:12:37;;;;;;;2.88;2.05;;;22.80;53.70;;;;;;4963085;28;20043;-52
2021/10/05 03:15:03;;;;;;;3.28;2.20;;;22.80;53.80;;;;;;4966327;28;20054;-53
2021/10/05 03:17:29;;;;;;;3.22;2.28;;;22.80;53.70;;;;;;4975861;28;20070;-59
2021/10/05 03:19:54;;;;;;;3.42;2.40;;;22.80;53.80;;;;;;4967500;28;20779;-53
2021/10/05 03:22:20;;;;;;;3.00;2.10;;;22.80;53.80;;;;;;4985679;28;20058;-56
2021/10/05 03:24:45;;;;;;;3.85;2.60;;;22.80;53.70;;;;;;4967329;28;20125;-55
2021/10/05 03:27:11;;;;;;;3.17;2.28;;;22.80;53.80;;;;;;4965820;28;20661;-52
2021/10/05 03:29:38;;;;;;;3.45;2.30;;;22.80;53.70;;;;;;4965696;28;20133;-59
2021/10/05 03:32:04;;;;;;;3.20;2.30;;;22.80;53.80;;;;;;4970084;28;20035;-59
2021/10/05 03:34:29;;;;;;;3.15;2.30;;;22.80;53.80;;;;;;4969678;28;20136;-52
2021/10/05 03:36:55;;;;;;;3.10;2.30;;;22.80;53.80;;;;;;4970799;28;20426;-51
2021/10/05 03:39:20;;;;;;;2.80;2.08;;;22.80;53.80;;;;;;4968374;28;20065;-53
2021/10/05 03:41:46;;;;;;;3.33;2.25;;;22.80;53.70;;;;;;4963583;28;20023;-57
2021/10/05 03:44:12;;;;;;;3.15;2.33;;;22.80;53.80;;;;;;4968323;28;20050;-53
2021/10/05 03:46:38;;;;;;;2.90;2.00;;;22.70;53.70;;;;;;4957458;28;20119;-53
2021/10/05 03:49:03;;;;;;;2.97;2.15;;;22.80;53.70;;;;;;4976792;28;20407;-50
2021/10/05 03:51:29;;;;;;;2.80;2.00;;;22.70;53.70;;;;;;4973827;28;20506;-55
2021/10/05 03:53:55;;;;;;;3.20;2.30;;;22.80;53.80;;;;;;4969844;28;20518;-53
2021/10/05 03:56:21;;;;;;;3.08;2.30;;;22.70;53.70;;;;;;4969200;28;20031;-59
2021/10/05 03:58:46;;;;;;;3.75;2.10;;;22.70;53.70;;;;;;4973686;28;20066;-59
2021/10/05 04:01:12;;;;;;;4.47;2.33;;;22.70;53.80;;;;;;4961864;28;20036;-55
2021/10/05 04:03:38;;;;;;;2.80;2.10;;;22.70;53.80;;;;;;4963162;28;20164;-50
2021/10/05 04:06:05;;;;;;;3.10;2.10;;;22.70;53.70;;;;;;4963354;28;20039;-54
2021/10/05 04:08:31;;;;;;;3.00;2.20;;;22.70;53.70;;;;;;4969375;28;20286;-48
2021/10/05 04:10:57;;;;;;;3.55;2.30;;;22.70;53.70;;;;;;4975241;28;20224;-48
2021/10/05 04:13:22;;;;;;;2.65;1.95;;;22.70;54.30;;;;;;4967520;28;20026;-52
2021/10/05 04:15:48;;;;;;;3.22;1.98;;;22.70;53.70;;;;;;4970392;28;20023;-54
2021/10/05 04:18:14;;;;;;;2.95;2.22;;;22.70;53.70;;;;;;4970954;28;20447;-57
2021/10/05 04:20:39;;;;;;;3.05;2.10;;;22.70;53.80;;;;;;4963863;28;20101;-55
2021/10/05 04:23:05;;;;;;;3.22;1.90;;;22.70;53.70;;;;;;4966959;28;20041;-53
2021/10/05 04:25:30;;;;;;;2.72;1.90;;;22.70;53.70;;;;;;4964277;28;20482;-55
2021/10/05 04:27:56;;;;;;;3.42;2.00;;;22.70;53.70;;;;;;4973422;28;20027;-52
2021/10/05 04:30:22;;;;;;;2.85;1.90;;;22.70;53.80;;;;;;4976088;28;20049;-48
2021/10/05 04:32:47;;;;;;;2.70;1.88;;;22.70;53.80;;;;;;4970592;28;20034;-58
2021/10/05 04:35:13;;;;;;;2.78;1.75;;;22.70;53.80;;;;;;4972606;28;20594;-46
2021/10/05 04:37:39;;;;;;;2.55;1.73;;;22.60;53.70;;;;;;4976755;28;20490;-59
2021/10/05 04:40:06;;;;;;;2.25;1.65;;;22.70;53.80;;;;;;4967552;28;20027;-60
2021/10/05 04:42:32;;;;;;;2.65;1.80;;;22.60;53.80;;;;;;4982692;28;20502;-55
2021/10/05 04:44:58;;;;;;;2.80;1.90;;;22.60;53.80;;;;;;4975184;28;20053;-59
2021/10/05 04:47:23;;;;;;;3.13;2.08;;;22.70;53.80;;;;;;4965073;28;20021;-55
2021/10/05 04:49:49;;;;;;;2.85;1.80;;;22.70;53.80;;;;;;4971009;28;20035;-58
2021/10/05 04:52:15;;;;;;;2.92;1.80;;;22.60;53.80;;;;;;4965152;28;20050;-55
2021/10/05 04:54:41;;;;;;;2.72;1.92;;;22.60;53.80;;;;;;4968361;28;20059;-53
2021/10/05 04:57:07;;;;;;;2.47;1.75;;;22.60;53.80;;;;;;4968851;28;20405;-50
2021/10/05 04:59:33;;;;;;;2.53;1.75;;;22.60;53.80;;;;;;4977321;28;20123;-55
2021/10/05 05:01:59;;;;;;;3.35;2.00;;;22.60;53.80;;;;;;4967510;28;20065;-56
2021/10/05 05:04:25;;;;;;;3.10;1.85;;;22.60;53.80;;;;;;4973980;28;20656;-60
2021/10/05 05:06:50;;;;;;;2.80;1.80;;;22.60;53.80;;;;;;4962583;28;20172;-56
2021/10/05 05:09:16;;;;;;;3.22;1.80;;;22.60;53.80;;;;;;4971572;28;20018;-56
2021/10/05 05:11:41;;;;;;;3.13;1.70;;;22.60;53.80;;;;;;4968977;28;20200;-56
2021/10/05 05:14:08;;;;;;;2.55;1.60;;;22.60;53.80;;;;;;4968585;28;20089;-51
2021/10/05 05:16:35;;;;;;;2.72;1.95;;;22.60;53.80;;;;;;4976514;28;20927;-55
2021/10/05 05:19:01;;;;;;;2.80;1.83;;;22.60;53.80;;;;;;4976389;28;20134;-53
2021/10/05 05:21:27;;;;;;;3.70;1.80;;;22.60;53.80;;;;;;4978720;28;20038;-56
2021/10/05 05:23:53;;;;;;;3.63;1.70;;;22.60;53.80;;;;;;4981257;28;20027;-59
2021/10/05 05:26:18;;;;;;;2.50;1.60;;;22.60;53.70;;;;;;4969140;28;20462;-60
2021/10/05 05:28:44;;;;;;;2.13;1.60;;;22.60;53.80;;;;;;4972708;28;20142;-55
2021/10/05 05:31:10;;;;;;;3.45;1.60;;;22.60;53.70;;;;;;4961688;28;20032;-53
2021/10/05 05:33:35;;;;;;;2.42;1.65;;;22.60;53.80;;;;;;4968967;28;20022;-55
2021/10/05 05:36:01;;;;;;;1.90;1.40;;;22.60;53.70;;;;;;4971672;28;20049;-54
2021/10/05 05:38:26;;;;;;;3.33;1.70;;;22.60;53.70;;;;;;4957613;28;20035;-60
2021/10/05 05:40:53;;;;;;;2.83;1.70;;;22.50;53.70;;;;;;4981289;28;20105;-56
2021/10/05 05:43:19;;;;;;;2.20;1.60;;;22.50;53.70;;;;;;4968073;28;20095;-54
2021/10/05 05:45:45;;;;;;;2.22;1.38;;;22.50;53.70;;;;;;4978229;28;20451;-54
2021/10/05 05:48:10;;;;;;;3.03;1.50;;;22.50;53.70;;;;;;4965191;28;20072;-53
2021/10/05 05:50:36;;;;;;;2.75;1.40;;;22.50;53.70;;;;;;4963112;28;20030;-57
2021/10/05 05:53:02;;;;;;;2.47;1.60;;;22.50;53.70;;;;;;4976281;28;20034;-53
2021/10/05 05:55:28;;;;;;;2.40;1.58;;;22.50;53.70;;;;;;4969433;28;20034;-57
2021/10/05 05:57:54;;;;;;;2.45;1.42;;;22.50;53.70;;;;;;4980204;28;20062;-60
2021/10/05 06:00:20;;;;;;;2.50;1.40;;;22.50;53.70;;;;;;4962248;28;20459;-53
2021/10/05 06:02:46;;;;;;;3.28;1.52;;;22.50;53.70;;;;;;4967212;28;20034;-52
2021/10/05 06:05:11;;;;;;;2.80;1.70;;;22.60;53.80;;;;;;4972428;28;20033;-55
2021/10/05 06:07:38;;;;;;;2.95;1.80;;;22.60;53.70;;;;;;4973792;28;20026;-53
2021/10/05 06:10:05;;;;;;;3.25;1.50;;;22.60;53.60;;;;;;4967253;28;20026;-53
2021/10/05 06:12:40;;;;;;;2.90;1.50;;;22.60;53.60;;;;;;4971559;28;20081;-55
2021/10/05 06:15:11;;;;;;;2.65;1.60;;;22.60;53.50;;;;;;4972701;28;20042;-51
2021/10/05 06:17:42;;;;;;;3.72;1.80;;;22.70;53.60;;;;;;4969949;28;20160;-55
2021/10/05 06:20:10;;;;;;;3.55;1.70;;;22.70;53.60;;;;;;4973174;28;20070;-59
2021/10/05 06:22:36;;;;;;;2.78;1.60;;;22.70;53.50;;;;;;4987336;28;20824;-54
2021/10/05 06:25:07;;;;;;;2.50;1.33;;;22.70;53.60;;;;;;4979954;28;20031;-55
2021/10/05 06:27:33;;;;;;;3.05;1.70;;;22.80;53.60;;;;;;4979125;28;20521;-59
2021/10/05 06:29:59;;;;;;;2.50;1.75;;;22.80;54.00;;;;;;4974764;28;20031;-56
2021/10/05 06:32:25;;;;;;;2.85;1.77;;;22.80;53.30;;;;;;4973502;28;20042;-58
2021/10/05 06:34:52;;;;;;;2.80;1.60;;;22.80;53.40;;;;;;4969097;28;20888;-53
2021/10/05 06:37:18;;;;;;;3.40;1.77;;;22.80;53.30;;;;;;4972186;28;20253;-51
2021/10/05 06:39:43;;;;;;;3.13;1.88;;;22.90;53.30;;;;;;4963856;28;20129;-57
2021/10/05 06:42:09;;;;;;;3.35;1.70;;;22.90;53.20;;;;;;4978405;28;20089;-59
2021/10/05 06:44:35;;;;;;;2.90;1.80;;;22.90;53.20;;;;;;4975417;28;20501;-57
2021/10/05 06:47:01;;;;;;;3.47;1.80;;;22.90;53.10;;;;;;4966471;28;20710;-53
2021/10/05 06:49:27;;;;;;;2.75;1.83;;;23.00;53.70;;;;;;4969413;28;20039;-53
2021/10/05 06:51:53;;;;;;;3.17;1.90;;;23.00;53.10;;;;;;4974196;28;20125;-52
2021/10/05 06:54:18;;;;;;;4.70;1.98;;;23.00;53.10;;;;;;4981567;28;20459;-52
2021/10/05 06:56:44;;;;;;;2.92;1.75;;;23.00;53.00;;;;;;4970234;28;20038;-52
2021/10/05 06:59:09;;;;;;;2.30;1.60;;;23.10;53.00;;;;;;4976380;28;20371;-53
2021/10/05 07:01:35;;;;;;;2.55;1.60;;;23.10;53.00;;;;;;4964662;28;20177;-53
2021/10/05 07:04:01;;;;;;;2.80;1.70;;;23.10;53.00;;;;;;4973277;28;20514;-49
2021/10/05 07:06:26;;;;;;;3.78;1.70;;;23.10;52.90;;;;;;4974692;28;20050;-55
2021/10/05 07:08:52;;;;;;;2.50;1.40;;;23.10;52.90;;;;;;4963907;28;20030;-53
2021/10/05 07:11:18;;;;;;;2.08;1.45;;;23.10;52.80;;;;;;4977502;28;20031;-55
2021/10/05 07:13:43;;;;;;;2.28;1.52;;;23.20;52.80;;;;;;4958848;28;20034;-55
2021/10/05 07:16:10;;;;;;;3.80;1.80;;;23.20;52.80;;;;;;4973699;28;20019;-58
2021/10/05 07:18:35;;;;;;;3.42;1.65;;;23.20;52.80;;;;;;4970184;28;20042;-53
2021/10/05 07:21:02;;;;;;;2.25;1.40;;;23.20;52.80;;;;;;4973330;28;20038;-55
2021/10/05 07:23:28;;;;;;;2.60;1.40;;;23.30;52.70;;;;;;4972378;28;20117;-51
2021/10/05 07:25:54;;;;;;;2.35;1.40;;;23.30;52.70;;;;;;4966778;28;20034;-50
2021/10/05 07:28:19;;;;;;;2.65;1.60;;;23.30;52.60;;;;;;4960876;28;20046;-51
2021/10/05 07:30:46;;;;;;;2.60;1.65;;;23.30;52.60;;;;;;4957275;28;20038;-59
2021/10/05 07:33:12;;;;;;;2.30;1.33;;;23.30;52.60;;;;;;4965377;28;20039;-59
2021/10/05 07:35:38;;;;;;;2.33;1.30;;;23.30;52.50;;;;;;4967966;28;20053;-52
2021/10/05 07:38:04;;;;;;;2.85;1.50;;;23.30;52.50;;;;;;4970089;28;20035;-60
2021/10/05 07:40:30;;;;;;;2.50;1.40;;;23.40;52.50;;;;;;4968190;28;20034;-59
2021/10/05 07:42:58;;;;;;;2.47;1.23;;;23.40;52.50;;;;;;4963235;28;20039;-51
2021/10/05 07:45:28;;;;;;;2.45;1.50;;;23.40;53.00;;;;;;4980232;28;20150;-51
2021/10/05 07:47:54;;;;;;;2.40;1.40;;;23.40;52.40;;;;;;4964323;28;20039;-51
2021/10/05 07:50:20;;;;;;;2.10;1.30;;;23.50;52.40;;;;;;4965297;28;20494;-54
2021/10/05 07:52:46;;;;;;;2.35;1.40;;;23.50;52.30;;;;;;4960861;28;20055;-56
2021/10/05 07:55:12;;;;;;;2.15;1.33;;;23.40;52.20;;;;;;4973615;28;20038;-53
2021/10/05 07:57:38;;;;;;;2.25;1.50;;;23.50;52.30;;;;;;4967709;28;20043;-59
2021/10/05 08:00:08;;;;;;;2.63;1.30;;;23.50;52.20;;;;;;4967644;28;20064;-55
2021/10/05 08:02:34;;;;;;;2.30;1.50;;;23.50;52.20;;;;;;4969796;28;20173;-56
2021/10/05 08:05:00;;;;;;;1.80;1.23;;;23.50;52.20;;;;;;4967210;28;20187;-56
2021/10/05 08:07:28;;;;;;;2.65;1.50;;;23.60;52.30;;;;;;4965813;28;20061;-53
2021/10/05 08:09:55;;;;;;;4.65;1.52;;;23.60;52.20;;;;;;4964500;28;20105;-53
2021/10/05 08:12:23;;;;;;;2.72;1.50;;;23.60;52.20;;;;;;4966446;28;20122;-49
2021/10/05 08:14:50;;;;;;;2.25;1.48;;;23.60;52.20;;;;;;4963283;28;20093;-49
2021/10/05 08:17:16;;;;;;;1.90;1.27;;;23.60;52.10;;;;;;4962591;28;20464;-60
2021/10/05 08:19:42;;;;;;;2.40;1.42;;;23.60;52.10;;;;;;4966373;28;20039;-55
2021/10/05 08:22:07;;;;;;;2.10;1.40;;;23.60;52.00;;;;;;4964474;28;20027;-55
2021/10/05 08:24:35;;;;;;;2.20;1.30;;;23.60;52.00;;;;;;4964407;28;20038;-56
2021/10/05 08:27:01;;;;;;;2.58;1.60;;;23.60;52.00;;;;;;4966702;28;20037;-60
2021/10/05 08:29:27;;;;;;;2.22;1.27;;;23.60;51.90;;;;;;4961696;28;20127;-58
2021/10/05 08:31:53;;;;;;;2.47;1.38;;;23.70;52.00;;;;;;4963475;28;20869;-58
2021/10/05 08:34:19;;;;;;;2.30;1.40;;;23.70;52.00;;;;;;4960431;28;20054;-55
2021/10/05 08:36:45;;;;;;;3.53;1.60;;;23.70;52.00;;;;;;4966479;28;20038;-56
2021/10/05 08:39:14;;;;;;;2.15;1.35;;;23.70;52.00;;;;;;4974875;28;20466;-61
2021/10/05 08:41:46;;;;;;;3.10;1.33;;;23.70;52.10;;;;;;4979418;28;20569;-54
2021/10/05 08:44:13;;;;;;;3.08;1.30;;;23.70;52.10;;;;;;4963854;28;20031;-57
2021/10/05 08:46:40;;;;;;;2.05;1.13;;;23.70;51.90;;;;;;4968487;28;20491;-55
2021/10/05 08:49:06;;;;;;;2.38;1.35;;;23.70;51.90;;;;;;4978567;28;20113;-57
2021/10/05 08:51:32;;;;;;;1.70;1.20;;;23.70;51.70;;;;;;4969920;28;20422;-54
2021/10/05 08:53:58;;;;;;;2.08;1.15;;;23.80;51.90;;;;;;4969644;28;20042;-61
2021/10/05 08:56:24;;;;;;;2.60;1.38;;;23.80;52.30;;;;;;4973711;28;20042;-51
2021/10/05 08:58:49;;;;;;;1.85;1.13;;;23.80;51.80;;;;;;4965247;28;20061;-51
2021/10/05 09:01:17;;;;;;;4.00;1.55;;;23.80;51.70;;;;;;4958372;28;20079;-56
2021/10/05 09:03:54;;;;;;;2.58;1.50;;;23.80;51.70;;;;;;4962578;28;20050;-56
2021/10/05 09:06:21;;;;;;;1.83;1.20;;;23.80;51.70;;;;;;4969422;28;20035;-54
2021/10/05 09:08:48;;;;;;;1.90;1.20;;;23.90;51.60;;;;;;4971602;28;20023;-60
2021/10/05 09:11:16;;;;;;;2.35;1.35;;;23.90;51.70;;;;;;4968681;28;20050;-55
2021/10/05 09:13:45;;;;;;;2.13;1.42;;;23.90;51.60;;;;;;4965292;28;20023;-59
2021/10/05 09:16:28;;;;;;;2.33;1.27;;;23.90;51.60;;;;;;4959351;28;20117;-54
2021/10/05 09:18:59;;;;;;;2.85;1.40;;;23.90;51.50;;;;;;4969379;28;20118;-59
2021/10/05 09:21:35;;;;;;;3.35;1.38;;;23.90;51.40;;;;;;4977085;28;20049;-57
2021/10/05 09:24:02;;;;;;;1.80;1.20;;;23.90;51.50;;;;;;4967979;28;20170;-55
2021/10/05 09:27:00;;;;;;;2.47;1.50;;;23.90;51.50;;;;;;4963333;28;20030;-50
2021/10/05 09:29:34;;;;;;;3.60;1.40;;;23.90;51.40;;;;;;4976518;28;20034;-49
2021/10/05 09:32:15;;;;;;;1.98;1.42;;;23.90;51.40;;;;;;4964061;28;20047;-51
2021/10/05 09:34:54;;;;;;;1.63;1.15;;;23.90;51.50;;;;;;4974169;28;20877;-52
2021/10/05 09:37:25;;;;;;;1.60;1.10;;;24.00;51.60;;;;;;4980599;28;20779;-58
2021/10/05 09:40:12;;;;;;;2.35;1.27;;;23.90;51.60;;;;;;4970751;28;20062;-59
2021/10/05 09:42:46;;;;;;;2.05;1.27;;;23.90;51.50;;;;;;4962112;28;20085;-54
2021/10/05 09:45:18;;;;;;;4.00;1.50;;;23.90;51.60;;;;;;4973140;28;20026;-52
2021/10/05 09:47:46;;;;;;;1.90;1.20;;;23.90;51.60;;;;;;4975946;28;20031;-56
2021/10/05 09:50:24;;;;;;;2.90;1.50;;;23.90;51.50;;;;;;4977133;28;20635;-57
2021/10/05 09:52:50;;;;;;;1.90;1.20;;;23.90;51.40;;;;;;4966537;28;20026;-56
2021/10/05 09:55:17;;;;;;;3.10;1.27;;;24.00;51.40;;;;;;4967972;28;20037;-54
2021/10/05 09:57:44;;;;;;;1.95;1.30;;;23.90;51.40;;;;;;4972992;28;20047;-60
2021/10/05 10:00:10;;;;;;;2.15;1.40;;;24.00;51.40;;;;;;4971462;28;20072;-56
2021/10/05 10:02:37;;;;;;;2.45;1.20;;;23.90;51.30;;;;;;4965156;28;20825;-59
2021/10/05 10:05:06;;;;;;;2.58;1.20;;;24.00;51.40;;;;;;4967833;28;20061;-56
2021/10/05 10:07:37;;;;;;;1.92;1.10;;;24.00;51.40;;;;;;4963429;28;20026;-56
2021/10/05 10:10:05;;;;;;;1.92;1.20;;;24.00;51.40;;;;;;4973440;28;20105;-56
2021/10/05 10:12:32;;;;;;;1.83;1.30;;;24.00;51.40;;;;;;4972115;28;20069;-56
2021/10/05 10:14:58;;;;;;;3.22;1.45;;;24.00;51.80;;;;;;4971178;28;20031;-57
2021/10/05 10:17:24;;;;;;;2.17;1.23;;;24.00;51.40;;;;;;4971415;28;20042;-59
2021/10/05 10:19:51;;;;;;;2.42;1.42;;;24.00;51.30;;;;;;4968797;28;20399;-56
2021/10/05 10:22:17;;;;;;;2.55;1.50;;;24.00;51.30;;;;;;4967581;28;20035;-49
2021/10/05 10:24:48;;;;;;;2.38;1.27;;;24.10;51.40;;;;;;4959615;28;20034;-58
2021/10/05 10:27:13;;;;;;;2.00;1.40;;;24.00;51.30;;;;;;4963659;28;20038;-54
2021/10/05 10:29:39;;;;;;;3.10;1.27;;;24.10;51.40;;;;;;4967148;28;20049;-53
2021/10/05 10:32:26;;;;;;;1.83;1.13;;;24.10;51.40;;;;;;4972074;28;20043;-52
2021/10/05 10:35:06;;;;;;;2.40;1.20;;;24.00;51.50;;;;;;4969057;28;20608;-54
2021/10/05 10:37:44;;;;;;;1.70;1.15;;;24.10;51.60;;;;;;4975533;28;20078;-55
2021/10/05 10:40:11;;;;;;;2.30;1.20;;;24.00;51.60;;;;;;4983105;28;20062;-53
2021/10/05 10:42:36;;;;;;;1.65;1.10;;;24.00;51.70;;;;;;4972728;28;20327;-53
2021/10/05 10:45:41;;;;;;;1.65;1.20;;;24.00;51.70;;;;;;4975528;28;20104;-50
2021/10/05 10:48:06;;;;;;;2.15;1.17;;;24.00;51.70;;;;;;4951305;28;20699;-52
2021/10/05 10:50:35;;;;;;;1.90;1.10;;;24.00;51.70;;;;;;4974528;28;20023;-60
2021/10/05 10:53:06;;;;;;;2.08;1.00;;;24.00;51.70;;;;;;4967877;28;20034;-57
2021/10/05 10:55:34;;;;;;;1.98;1.35;;;24.00;51.80;;;;;;4979365;28;20170;-55
2021/10/05 10:58:00;;;;;;;2.67;1.20;;;24.00;51.80;;;;;;4978469;28;20399;-59
2021/10/05 11:00:27;;;;;;;2.50;1.20;;;23.90;51.80;;;;;;4964462;28;20097;-58
2021/10/05 11:03:01;;;;;;;1.95;1.10;;;23.90;51.80;;;;;;4969721;28;20039;-56
2021/10/05 11:05:31;;;;;;;2.30;1.23;;;23.90;51.80;;;;;;4967598;28;20022;-56
2021/10/05 11:07:57;;;;;;;1.75;1.10;;;23.90;51.80;;;;;;4972660;28;20027;-58
2021/10/05 11:10:27;;;;;;;4.30;1.40;;;23.90;51.80;;;;;;4974064;28;20648;-57
2021/10/05 11:12:56;;;;;;;2.03;1.20;;;24.00;51.80;;;;;;4977688;28;20030;-50
2021/10/05 11:15:44;;;;;;;2.22;1.52;;;24.00;51.70;;;;;;4963995;28;20519;-51
2021/10/05 11:18:11;;;;;;;2.25;1.27;;;24.10;51.70;;;;;;4970995;28;20038;-58
2021/10/05 11:21:06;;;;;;;2.58;1.33;;;24.10;51.60;;;;;;4969789;28;20047;-58
2021/10/05 11:23:42;;;;;;;3.05;1.23;;;24.10;51.50;;;;;;4968991;28;20110;-52
2021/10/05 11:26:08;;;;;;;1.77;1.13;;;24.10;51.50;;;;;;4967060;28;20031;-51
2021/10/05 11:28:34;;;;;;;3.03;1.30;;;24.10;51.40;;;;;;4969865;28;20034;-58
2021/10/05 11:31:05;;;;;;;2.58;1.40;;;24.10;51.40;;;;;;4966218;28;20075;-56
2021/10/05 11:33:32;;;;;;;3.50;1.42;;;24.10;51.40;;;;;;4965022;28;20069;-56
2021/10/05 11:36:13;;;;;;;2.83;1.30;;;24.10;51.40;;;;;;4961668;28;20058;-53
2021/10/05 11:38:41;;;;;;;2.38;1.30;;;24.10;51.40;;;;;;4966010;28;20796;-55
2021/10/05 11:41:08;;;;;;;2.17;1.13;;;24.10;51.40;;;;;;4973412;28;20716;-55
2021/10/05 11:43:43;;;;;;;1.95;1.20;;;24.10;51.40;;;;;;4961703;28;20448;-57
2021/10/05 11:46:22;;;;;;;2.38;1.30;;;24.10;51.30;;;;;;4961842;28;20028;-54
2021/10/05 11:48:51;;;;;;;;;;;24.20;51.40;;;;;;4967956;28;20045;-57
2021/10/05 11:51:19;;;;;;;2.20;1.20;;;24.10;51.40;;;;;;4972962;28;19921;-54
2021/10/05 11:53:46;;;;;;;2.85;1.20;;;24.10;51.40;;;;;;4972164;28;20050;-54
2021/10/05 11:56:17;;;;;;;2.88;1.40;;;24.10;51.40;;;;;;4956326;28;20031;-55
2021/10/05 11:58:50;;;;;;;2.15;1.15;;;24.10;51.40;;;;;;4963738;28;20038;-54
2021/10/05 12:01:27;;;;;;;2.00;1.52;;;24.20;51.50;;;;;;4956952;28;20099;-56
2021/10/05 12:04:06;;;;;;;2.28;1.10;;;24.20;51.90;;;;;;4960619;28;20069;-56
2021/10/05 12:06:38;;;;;;;2.35;1.30;;;24.20;51.40;;;;;;4953108;28;20035;-58
2021/10/05 12:09:06;;;;;;;1.77;1.00;;;24.20;51.40;;;;;;4958106;28;20070;-57
2021/10/05 12:11:44;;;;;;;2.30;1.20;;;24.20;51.40;;;;;;4966664;28;21007;-54
2021/10/05 12:14:13;;;;;;;1.98;1.10;;;24.20;51.40;;;;;;4961964;28;20475;-55
2021/10/05 12:16:41;;;;;;;2.70;1.40;;;24.20;51.30;;;;;;4964793;28;20120;-54
2021/10/05 12:19:07;;;;;;;2.90;1.23;;;24.30;51.50;;;;;;4962228;28;20038;-52
2021/10/05 12:21:33;;;;;;;1.92;1.02;;;24.20;51.30;;;;;;4956258;28;20118;-53
2021/10/05 12:24:02;;;;;;;2.45;1.15;;;24.20;51.30;;;;;;4965498;28;20070;-55
2021/10/05 12:26:28;;;;;;;3.38;1.08;;;24.20;51.30;;;;;;4966747;28;20038;-53
2021/10/05 12:29:06;;;;;;;3.03;1.20;;;24.30;51.30;;;;;;4968078;28;20030;-54
2021/10/05 12:31:33;;;;;;;2.40;1.20;;;24.30;51.30;;;;;;4959910;28;20060;-56
2021/10/05 12:34:01;;;;;;;1.90;1.20;;;24.30;51.40;;;;;;4962561;28;20050;-59
2021/10/05 12:36:29;;;;;;;2.13;1.20;;;24.30;51.50;;;;;;4950958;28;20027;-54
2021/10/05 12:38:55;;;;;;;2.92;1.40;;;24.30;51.50;;;;;;4961621;28;20649;-55
2021/10/05 12:41:21;;;;;;;2.00;1.17;;;24.30;51.40;;;;;;4961307;28;20036;-59
2021/10/05 12:43:47;;;;;;;3.53;1.30;;;24.30;51.30;;;;;;4978186;28;20046;-55
2021/10/05 12:46:22;;;;;;;2.70;1.30;;;24.30;51.30;;;;;;4966528;28;20061;-55
2021/10/05 12:48:55;;;;;;;2.53;1.25;;;24.30;51.30;;;;;;4969906;28;20093;-53
2021/10/05 12:51:23;;;;;;;4.45;1.27;;;24.30;51.30;;;;;;4963077;28;20097;-55
2021/10/05 12:53:54;;;;;;;1.80;1.10;;;24.30;51.40;;;;;;4973255;28;20053;-59